CNV44 KADW-KPSM
Flight info
| Callsign | CNV44 |
|---|---|
| Flight time | 1h 10m |
| Altitude | 37000 |
| Route | LINCN2 JERES BEETS Q480 KYLOH |
| Aircraft | B737/M-SDE2E3FGHIRWXY/LB1 |
Departure
| Time | 2026-05-06 20:12 |
|---|---|
| Airport | Joint Base Andrews (KADW) |
Arrival
| Time | 2026-05-06 21:22 |
|---|---|
| Airport | Portsmouth International Airport at Pease (KPSM) |
| Time | Latitude | Longitude | Altitude | Speed | Heading |
|---|---|---|---|---|---|
| 2026-05-06 19:57 | 38.81129 | -76.87546 | 272 ft | 0 kts | 0° |
| 2026-05-06 20:06 | 38.81159 | -76.87533 | 269 ft | 6 kts | 53° |
| 2026-05-06 20:06 | 38.81164 | -76.87487 | 269 ft | 1 kts | 86° |
| 2026-05-06 20:06 | 38.81165 | -76.87484 | 269 ft | 2 kts | 86° |
| 2026-05-06 20:06 | 38.81220 | -76.87448 | 274 ft | 17 kts | 354° |
| 2026-05-06 20:07 | 38.81342 | -76.87447 | 274 ft | 18 kts | 1° |
| 2026-05-06 20:07 | 38.81463 | -76.87447 | 274 ft | 17 kts | 360° |
| 2026-05-06 20:07 | 38.81578 | -76.87449 | 274 ft | 16 kts | 359° |
| 2026-05-06 20:07 | 38.81690 | -76.87448 | 274 ft | 16 kts | 360° |
| 2026-05-06 20:08 | 38.81833 | -76.87449 | 274 ft | 26 kts | 359° |
| 2026-05-06 20:08 | 38.82023 | -76.87449 | 274 ft | 27 kts | 0° |
| 2026-05-06 20:08 | 38.82206 | -76.87451 | 274 ft | 25 kts | 359° |
| 2026-05-06 20:08 | 38.82309 | -76.87355 | 274 ft | 20 kts | 88° |
| 2026-05-06 20:09 | 38.82309 | -76.87222 | 274 ft | 8 kts | 90° |
| 2026-05-06 20:09 | 38.82309 | -76.87195 | 274 ft | 0 kts | 90° |
| 2026-05-06 20:11 | 38.82309 | -76.87194 | 274 ft | 1 kts | 90° |
| 2026-05-06 20:11 | 38.82309 | -76.87137 | 278 ft | 11 kts | 93° |
| 2026-05-06 20:11 | 38.82244 | -76.87068 | 280 ft | 14 kts | 178° |
| 2026-05-06 20:11 | 38.82119 | -76.87068 | 276 ft | 41 kts | 180° |
| 2026-05-06 20:12 | 38.81484 | -76.87067 | 272 ft | 139 kts | 180° |
| 2026-05-06 20:12 | 38.80333 | -76.87061 | 883 ft | 178 kts | 183° |
| 2026-05-06 20:12 | 38.79062 | -76.87052 | 2188 ft | 187 kts | 184° |
| 2026-05-06 20:12 | 38.77750 | -76.86993 | 3391 ft | 189 kts | 182° |
| 2026-05-06 20:13 | 38.76363 | -76.86894 | 4014 ft | 220 kts | 183° |
| 2026-05-06 20:13 | 38.74586 | -76.86872 | 3456 ft | 271 kts | 185° |
| 2026-05-06 20:13 | 38.72715 | -76.86920 | 3421 ft | 274 kts | 185° |
| 2026-05-06 20:13 | 38.70795 | -76.87022 | 4650 ft | 275 kts | 188° |
| 2026-05-06 20:14 | 38.68887 | -76.87133 | 5956 ft | 275 kts | 189° |
| 2026-05-06 20:14 | 38.66997 | -76.87243 | 7299 ft | 268 kts | 190° |
| 2026-05-06 20:14 | 38.65166 | -76.87364 | 8656 ft | 259 kts | 191° |
| 2026-05-06 20:14 | 38.63398 | -76.87484 | 9972 ft | 251 kts | 191° |
| 2026-05-06 20:15 | 38.61714 | -76.87723 | 11106 ft | 233 kts | 209° |
| 2026-05-06 20:15 | 38.60504 | -76.88911 | 11986 ft | 226 kts | 238° |
| 2026-05-06 20:15 | 38.59691 | -76.90754 | 12305 ft | 252 kts | 250° |
| 2026-05-06 20:15 | 38.59267 | -76.92960 | 13113 ft | 259 kts | 262° |
| 2026-05-06 20:16 | 38.59066 | -76.95257 | 14079 ft | 262 kts | 264° |
| 2026-05-06 20:16 | 38.58896 | -76.97585 | 15031 ft | 262 kts | 265° |
| 2026-05-06 20:16 | 38.58723 | -76.99907 | 15999 ft | 263 kts | 265° |
| 2026-05-06 20:16 | 38.58535 | -77.02243 | 16932 ft | 266 kts | 265° |
| 2026-05-06 20:17 | 38.58337 | -77.04603 | 17904 ft | 267 kts | 265° |
| 2026-05-06 20:17 | 38.58133 | -77.06977 | 18539 ft | 269 kts | 265° |
| 2026-05-06 20:17 | 38.57956 | -77.09353 | 18823 ft | 269 kts | 270° |
| 2026-05-06 20:17 | 38.58320 | -77.11699 | 18840 ft | 272 kts | 288° |
| 2026-05-06 20:18 | 38.59279 | -77.13827 | 18972 ft | 283 kts | 302° |
| 2026-05-06 20:18 | 38.60689 | -77.15642 | 19633 ft | 296 kts | 313° |
| 2026-05-06 20:18 | 38.62574 | -77.16873 | 20446 ft | 317 kts | 332° |
| 2026-05-06 20:18 | 38.64727 | -77.17625 | 21328 ft | 323 kts | 334° |
| 2026-05-06 20:19 | 38.66936 | -77.18308 | 22090 ft | 329 kts | 334° |
| 2026-05-06 20:19 | 38.69180 | -77.18980 | 22832 ft | 334 kts | 334° |
| 2026-05-06 20:19 | 38.71454 | -77.19664 | 23593 ft | 337 kts | 333° |
| 2026-05-06 20:19 | 38.73746 | -77.20360 | 24277 ft | 340 kts | 333° |
| 2026-05-06 20:20 | 38.76046 | -77.21066 | 24956 ft | 342 kts | 333° |
| 2026-05-06 20:20 | 38.78368 | -77.21786 | 25605 ft | 345 kts | 333° |
| 2026-05-06 20:20 | 38.80709 | -77.22515 | 26259 ft | 348 kts | 333° |
| 2026-05-06 20:20 | 38.83071 | -77.23253 | 26897 ft | 351 kts | 332° |
| 2026-05-06 20:21 | 38.85459 | -77.24000 | 27510 ft | 355 kts | 332° |
| 2026-05-06 20:21 | 38.87872 | -77.24755 | 28173 ft | 358 kts | 332° |
| 2026-05-06 20:21 | 38.90308 | -77.25519 | 28743 ft | 362 kts | 332° |
| 2026-05-06 20:21 | 38.92614 | -77.26615 | 29258 ft | 346 kts | 317° |
| 2026-05-06 20:22 | 38.96499 | -77.30396 | 29425 ft | 362 kts | 309° |
| 2026-05-06 20:22 | 38.98467 | -77.32505 | 29529 ft | 375 kts | 310° |
| 2026-05-06 20:22 | 39.00513 | -77.34678 | 29613 ft | 388 kts | 310° |
| 2026-05-06 20:23 | 39.02637 | -77.36900 | 29685 ft | 399 kts | 311° |
| 2026-05-06 20:23 | 39.04827 | -77.39169 | 29773 ft | 409 kts | 311° |
| 2026-05-06 20:23 | 39.07063 | -77.41478 | 30053 ft | 413 kts | 311° |
| 2026-05-06 20:23 | 39.09331 | -77.43740 | 30514 ft | 418 kts | 316° |
| 2026-05-06 20:24 | 39.12012 | -77.45389 | 31068 ft | 434 kts | 329° |
| 2026-05-06 20:24 | 39.14980 | -77.46335 | 31726 ft | 449 kts | 340° |
| 2026-05-06 20:24 | 39.18141 | -77.46508 | 32355 ft | 456 kts | 346° |
| 2026-05-06 20:24 | 39.21319 | -77.46442 | 32887 ft | 456 kts | 347° |
| 2026-05-06 20:25 | 39.24489 | -77.46316 | 33315 ft | 456 kts | 347° |
| 2026-05-06 20:25 | 39.27663 | -77.46190 | 33736 ft | 455 kts | 347° |
| 2026-05-06 20:25 | 39.30815 | -77.46087 | 34164 ft | 452 kts | 346° |
| 2026-05-06 20:25 | 39.33950 | -77.46006 | 34563 ft | 449 kts | 346° |
| 2026-05-06 20:26 | 39.37064 | -77.45943 | 34954 ft | 447 kts | 345° |
| 2026-05-06 20:26 | 39.40168 | -77.45891 | 35333 ft | 445 kts | 345° |
| 2026-05-06 20:26 | 39.43252 | -77.45842 | 35684 ft | 443 kts | 345° |
| 2026-05-06 20:26 | 39.46338 | -77.45795 | 35999 ft | 442 kts | 345° |
| 2026-05-06 20:27 | 39.49406 | -77.45748 | 36286 ft | 441 kts | 345° |
| 2026-05-06 20:27 | 39.52483 | -77.45703 | 36481 ft | 443 kts | 345° |
| 2026-05-06 20:27 | 39.55560 | -77.45652 | 36772 ft | 442 kts | 345° |
| 2026-05-06 20:27 | 39.58641 | -77.45605 | 36888 ft | 445 kts | 345° |
| 2026-05-06 20:28 | 39.64809 | -77.45491 | 36833 ft | 440 kts | 345° |
| 2026-05-06 20:28 | 39.70903 | -77.45388 | 36832 ft | 437 kts | 345° |
| 2026-05-06 20:29 | 39.76964 | -77.45293 | 36843 ft | 435 kts | 344° |
| 2026-05-06 20:29 | 39.83017 | -77.45196 | 36850 ft | 436 kts | 344° |
| 2026-05-06 20:30 | 39.92117 | -77.44641 | 36818 ft | 470 kts | 3° |
| 2026-05-06 20:30 | 39.95180 | -77.42756 | 36849 ft | 507 kts | 21° |
| 2026-05-06 20:31 | 39.97929 | -77.39563 | 36826 ft | 539 kts | 42° |
| 2026-05-06 20:31 | 40.00008 | -77.35423 | 36875 ft | 550 kts | 52° |
| 2026-05-06 20:31 | 40.01790 | -77.31068 | 36832 ft | 553 kts | 56° |
| 2026-05-06 20:32 | 40.05154 | -77.22060 | 36810 ft | 551 kts | 57° |
| 2026-05-06 20:32 | 40.08596 | -77.13150 | 36825 ft | 549 kts | 55° |
| 2026-05-06 20:33 | 40.12155 | -77.04361 | 36826 ft | 546 kts | 54° |
| 2026-05-06 20:33 | 40.15730 | -76.95618 | 36826 ft | 545 kts | 54° |
| 2026-05-06 20:34 | 40.19292 | -76.86845 | 36832 ft | 547 kts | 54° |
| 2026-05-06 20:34 | 40.22840 | -76.78047 | 36838 ft | 547 kts | 54° |
| 2026-05-06 20:35 | 40.26381 | -76.69234 | 36818 ft | 547 kts | 54° |
| 2026-05-06 20:35 | 40.29919 | -76.60410 | 36819 ft | 547 kts | 54° |
| 2026-05-06 20:36 | 40.33454 | -76.51572 | 36820 ft | 548 kts | 54° |
| 2026-05-06 20:36 | 40.36958 | -76.42678 | 36812 ft | 551 kts | 55° |
| 2026-05-06 20:37 | 40.40411 | -76.33701 | 36815 ft | 552 kts | 56° |
| 2026-05-06 20:37 | 40.43857 | -76.24711 | 36818 ft | 552 kts | 56° |
| 2026-05-06 20:38 | 40.47317 | -76.15687 | 36833 ft | 552 kts | 56° |
| 2026-05-06 20:38 | 40.50770 | -76.06669 | 36865 ft | 553 kts | 56° |
| 2026-05-06 20:39 | 40.54199 | -75.97687 | 36818 ft | 554 kts | 56° |
| 2026-05-06 20:39 | 40.57082 | -75.90107 | 36816 ft | 553 kts | 56° |
| 2026-05-06 20:40 | 40.61013 | -75.79738 | 36823 ft | 552 kts | 56° |
| 2026-05-06 20:40 | 40.64415 | -75.70709 | 36826 ft | 550 kts | 56° |
| 2026-05-06 20:41 | 40.67798 | -75.61690 | 36846 ft | 549 kts | 56° |
| 2026-05-06 20:41 | 40.71169 | -75.52682 | 36835 ft | 547 kts | 56° |
| 2026-05-06 20:42 | 40.74529 | -75.43677 | 36823 ft | 547 kts | 56° |
| 2026-05-06 20:42 | 40.77388 | -75.36265 | 36819 ft | 541 kts | 51° |
| 2026-05-06 20:43 | 40.81401 | -75.27961 | 36823 ft | 534 kts | 47° |
| 2026-05-06 20:43 | 40.85523 | -75.19816 | 36824 ft | 536 kts | 47° |
| 2026-05-06 20:44 | 40.89587 | -75.11546 | 36821 ft | 536 kts | 49° |
| 2026-05-06 20:44 | 40.93598 | -75.03235 | 36799 ft | 536 kts | 49° |
| 2026-05-06 20:45 | 40.97628 | -74.94946 | 36809 ft | 533 kts | 46° |
| 2026-05-06 20:45 | 41.01944 | -74.87022 | 36823 ft | 531 kts | 44° |
| 2026-05-06 20:46 | 41.06394 | -74.79202 | 36822 ft | 532 kts | 44° |
| 2026-05-06 20:46 | 41.10813 | -74.71307 | 36812 ft | 534 kts | 44° |
| 2026-05-06 20:47 | 41.15196 | -74.63360 | 36794 ft | 534 kts | 45° |
| 2026-05-06 20:47 | 41.19575 | -74.55396 | 36808 ft | 535 kts | 45° |
| 2026-05-06 20:48 | 41.23961 | -74.47412 | 36805 ft | 535 kts | 45° |
| 2026-05-06 20:48 | 41.28614 | -74.39815 | 36798 ft | 527 kts | 38° |
| 2026-05-06 20:49 | 41.33516 | -74.32583 | 36861 ft | 526 kts | 38° |
| 2026-05-06 20:49 | 41.38408 | -74.25320 | 36820 ft | 528 kts | 39° |
| 2026-05-06 20:50 | 41.43259 | -74.17965 | 36823 ft | 529 kts | 39° |
| 2026-05-06 20:50 | 41.48093 | -74.10568 | 36820 ft | 529 kts | 39° |
| 2026-05-06 20:51 | 41.52927 | -74.03162 | 36798 ft | 530 kts | 40° |
| 2026-05-06 20:51 | 41.57739 | -73.95783 | 36775 ft | 530 kts | 40° |
| 2026-05-06 20:52 | 41.62567 | -73.88357 | 36792 ft | 529 kts | 40° |
| 2026-05-06 20:52 | 41.67303 | -73.80794 | 36775 ft | 538 kts | 48° |
| 2026-05-06 20:53 | 41.71276 | -73.72232 | 36793 ft | 543 kts | 52° |
| 2026-05-06 20:53 | 41.75104 | -73.63516 | 36772 ft | 543 kts | 52° |
| 2026-05-06 20:54 | 41.79001 | -73.54811 | 36800 ft | 550 kts | 52° |
| 2026-05-06 20:54 | 41.83006 | -73.45970 | 36860 ft | 560 kts | 52° |
| 2026-05-06 20:55 | 41.87049 | -73.37005 | 36820 ft | 561 kts | 53° |
| 2026-05-06 20:55 | 41.91069 | -73.28053 | 36755 ft | 559 kts | 53° |
| 2026-05-06 20:56 | 41.95067 | -73.19145 | 36797 ft | 557 kts | 52° |
| 2026-05-06 20:56 | 41.99059 | -73.10231 | 36857 ft | 556 kts | 53° |
| 2026-05-06 20:57 | 42.03048 | -73.01298 | 36810 ft | 557 kts | 53° |
| 2026-05-06 20:57 | 42.07022 | -72.92361 | 36779 ft | 557 kts | 53° |
| 2026-05-06 20:58 | 42.10982 | -72.83421 | 36798 ft | 555 kts | 53° |
| 2026-05-06 20:58 | 42.12968 | -72.78938 | 36304 ft | 562 kts | 54° |
| 2026-05-06 20:58 | 42.14970 | -72.74412 | 35639 ft | 562 kts | 54° |
| 2026-05-06 20:58 | 42.17066 | -72.69987 | 34890 ft | 556 kts | 47° |
| 2026-05-06 20:59 | 42.19445 | -72.65932 | 34137 ft | 549 kts | 44° |
| 2026-05-06 20:59 | 42.21911 | -72.62006 | 33272 ft | 548 kts | 43° |
| 2026-05-06 20:59 | 42.24402 | -72.58129 | 32369 ft | 546 kts | 43° |
| 2026-05-06 20:59 | 42.26888 | -72.54255 | 31513 ft | 545 kts | 44° |
| 2026-05-06 21:00 | 42.29355 | -72.50370 | 30690 ft | 545 kts | 45° |
| 2026-05-06 21:00 | 42.31807 | -72.46462 | 29679 ft | 547 kts | 45° |
| 2026-05-06 21:00 | 42.34253 | -72.42518 | 28746 ft | 545 kts | 46° |
| 2026-05-06 21:00 | 42.36669 | -72.38591 | 28015 ft | 544 kts | 47° |
| 2026-05-06 21:01 | 42.39087 | -72.34651 | 27303 ft | 547 kts | 47° |
| 2026-05-06 21:01 | 42.41529 | -72.30669 | 26543 ft | 550 kts | 47° |
| 2026-05-06 21:01 | 42.43961 | -72.26697 | 25819 ft | 549 kts | 48° |
| 2026-05-06 21:01 | 42.46393 | -72.22724 | 25049 ft | 546 kts | 49° |
| 2026-05-06 21:02 | 42.48811 | -72.18767 | 24309 ft | 543 kts | 49° |
| 2026-05-06 21:02 | 42.51199 | -72.14856 | 23534 ft | 534 kts | 49° |
| 2026-05-06 21:02 | 42.53543 | -72.11014 | 22684 ft | 525 kts | 50° |
| 2026-05-06 21:02 | 42.55852 | -72.07225 | 21889 ft | 517 kts | 50° |
| 2026-05-06 21:03 | 42.58122 | -72.03498 | 21130 ft | 509 kts | 50° |
| 2026-05-06 21:03 | 42.60363 | -71.99811 | 20421 ft | 502 kts | 50° |
| 2026-05-06 21:03 | 42.62572 | -71.96173 | 19680 ft | 497 kts | 50° |
| 2026-05-06 21:03 | 42.64761 | -71.92566 | 18954 ft | 492 kts | 50° |
| 2026-05-06 21:04 | 42.66926 | -71.88993 | 18198 ft | 489 kts | 49° |
| 2026-05-06 21:04 | 42.69075 | -71.85442 | 17393 ft | 486 kts | 49° |
| 2026-05-06 21:04 | 42.71212 | -71.81906 | 16736 ft | 479 kts | 49° |
| 2026-05-06 21:04 | 42.73322 | -71.78411 | 16079 ft | 477 kts | 49° |
| 2026-05-06 21:05 | 42.75397 | -71.74971 | 15426 ft | 475 kts | 49° |
| 2026-05-06 21:05 | 42.77503 | -71.71471 | 14701 ft | 470 kts | 49° |
| 2026-05-06 21:05 | 42.79554 | -71.68059 | 14003 ft | 462 kts | 48° |
| 2026-05-06 21:05 | 42.81547 | -71.64739 | 13264 ft | 453 kts | 48° |
| 2026-05-06 21:06 | 42.83519 | -71.61449 | 12501 ft | 445 kts | 49° |
| 2026-05-06 21:06 | 42.85463 | -71.58208 | 11807 ft | 438 kts | 49° |
| 2026-05-06 21:06 | 42.87391 | -71.54994 | 11292 ft | 443 kts | 49° |
| 2026-05-06 21:06 | 42.89361 | -71.51709 | 11136 ft | 448 kts | 49° |
| 2026-05-06 21:07 | 42.91320 | -71.48424 | 11033 ft | 445 kts | 49° |
| 2026-05-06 21:07 | 42.93254 | -71.45180 | 10987 ft | 437 kts | 50° |
| 2026-05-06 21:07 | 42.95173 | -71.41963 | 10989 ft | 438 kts | 50° |
| 2026-05-06 21:07 | 42.97100 | -71.38730 | 10986 ft | 436 kts | 49° |
| 2026-05-06 21:08 | 42.98987 | -71.35557 | 10763 ft | 424 kts | 50° |
| 2026-05-06 21:08 | 43.00801 | -71.32500 | 10651 ft | 404 kts | 50° |
| 2026-05-06 21:08 | 43.02525 | -71.29594 | 10519 ft | 384 kts | 50° |
| 2026-05-06 21:08 | 43.04172 | -71.26818 | 10407 ft | 367 kts | 50° |
| 2026-05-06 21:09 | 43.05743 | -71.24161 | 10330 ft | 351 kts | 49° |
| 2026-05-06 21:09 | 43.07275 | -71.21671 | 10247 ft | 335 kts | 45° |
| 2026-05-06 21:09 | 43.08852 | -71.19413 | 10152 ft | 320 kts | 42° |
| 2026-05-06 21:09 | 43.10449 | -71.17337 | 9870 ft | 315 kts | 41° |
| 2026-05-06 21:10 | 43.12046 | -71.15280 | 9464 ft | 315 kts | 41° |
| 2026-05-06 21:10 | 43.13624 | -71.13217 | 9133 ft | 313 kts | 41° |
| 2026-05-06 21:10 | 43.15182 | -71.11160 | 8749 ft | 312 kts | 42° |
| 2026-05-06 21:10 | 43.16728 | -71.09100 | 8482 ft | 302 kts | 42° |
| 2026-05-06 21:11 | 43.18180 | -71.07142 | 8343 ft | 286 kts | 42° |
| 2026-05-06 21:11 | 43.19603 | -71.05220 | 7731 ft | 291 kts | 42° |
| 2026-05-06 21:11 | 43.21163 | -71.03456 | 7104 ft | 291 kts | 22° |
| 2026-05-06 21:11 | 43.23054 | -71.02723 | 6489 ft | 278 kts | 353° |
| 2026-05-06 21:12 | 43.24896 | -71.03171 | 5934 ft | 265 kts | 332° |
| 2026-05-06 21:12 | 43.26624 | -71.04064 | 5313 ft | 267 kts | 330° |
| 2026-05-06 21:12 | 43.28358 | -71.05010 | 4675 ft | 269 kts | 330° |
| 2026-05-06 21:12 | 43.30100 | -71.05957 | 4033 ft | 270 kts | 330° |
| 2026-05-06 21:13 | 43.31840 | -71.06921 | 3435 ft | 271 kts | 330° |
| 2026-05-06 21:13 | 43.33577 | -71.07908 | 3040 ft | 265 kts | 330° |
| 2026-05-06 21:13 | 43.35349 | -71.08365 | 2892 ft | 259 kts | 1° |
| 2026-05-06 21:13 | 43.36982 | -71.07561 | 2837 ft | 246 kts | 33° |
| 2026-05-06 21:14 | 43.38094 | -71.05900 | 2781 ft | 230 kts | 68° |
| 2026-05-06 21:14 | 43.38410 | -71.03826 | 2728 ft | 217 kts | 106° |
| 2026-05-06 21:14 | 43.37873 | -71.02009 | 2713 ft | 204 kts | 140° |
| 2026-05-06 21:14 | 43.36867 | -71.00619 | 2696 ft | 204 kts | 146° |
| 2026-05-06 21:15 | 43.35681 | -70.99770 | 2611 ft | 187 kts | 174° |
| 2026-05-06 21:15 | 43.34429 | -70.99358 | 2567 ft | 184 kts | 172° |
| 2026-05-06 21:15 | 43.33191 | -70.98940 | 2515 ft | 182 kts | 173° |
| 2026-05-06 21:15 | 43.31958 | -70.98517 | 2459 ft | 183 kts | 172° |
| 2026-05-06 21:16 | 43.30714 | -70.98090 | 2418 ft | 185 kts | 172° |
| 2026-05-06 21:16 | 43.29463 | -70.97676 | 2358 ft | 184 kts | 173° |
| 2026-05-06 21:16 | 43.28224 | -70.97267 | 2296 ft | 183 kts | 172° |
| 2026-05-06 21:16 | 43.26995 | -70.96866 | 2256 ft | 183 kts | 172° |
| 2026-05-06 21:17 | 43.25762 | -70.96455 | 2192 ft | 183 kts | 172° |
| 2026-05-06 21:17 | 43.24592 | -70.95625 | 2090 ft | 193 kts | 147° |
| 2026-05-06 21:17 | 43.23514 | -70.94583 | 2070 ft | 193 kts | 156° |
| 2026-05-06 21:17 | 43.22347 | -70.93625 | 2014 ft | 191 kts | 157° |
| 2026-05-06 21:18 | 43.21227 | -70.92748 | 1998 ft | 184 kts | 158° |
| 2026-05-06 21:18 | 43.20176 | -70.91915 | 1984 ft | 165 kts | 157° |
| 2026-05-06 21:18 | 43.19245 | -70.91149 | 1964 ft | 147 kts | 158° |
| 2026-05-06 21:18 | 43.18400 | -70.90434 | 1999 ft | 143 kts | 158° |
| 2026-05-06 21:19 | 43.17515 | -70.89820 | 1997 ft | 143 kts | 166° |
| 2026-05-06 21:19 | 43.16631 | -70.89324 | 2006 ft | 127 kts | 166° |
| 2026-05-06 21:19 | 43.15861 | -70.88745 | 1746 ft | 125 kts | 161° |
| 2026-05-06 21:19 | 43.15101 | -70.88251 | 1459 ft | 116 kts | 163° |
| 2026-05-06 21:20 | 43.14346 | -70.87722 | 1371 ft | 128 kts | 160° |
| 2026-05-06 21:20 | 43.13826 | -70.87306 | 1294 ft | 128 kts | 157° |
| 2026-05-06 21:20 | 43.12831 | -70.86433 | 1014 ft | 130 kts | 153° |
| 2026-05-06 21:20 | 43.12050 | -70.85799 | 877 ft | 131 kts | 154° |
| 2026-05-06 21:21 | 43.11265 | -70.85167 | 740 ft | 132 kts | 149° |
| 2026-05-06 21:21 | 43.10494 | -70.84491 | 564 ft | 128 kts | 149° |
| 2026-05-06 21:21 | 43.09745 | -70.83920 | 316 ft | 122 kts | 151° |
| 2026-05-06 21:21 | 43.09011 | -70.83326 | 154 ft | 120 kts | 150° |
| 2026-05-06 21:22 | 43.08315 | -70.82754 | 106 ft | 110 kts | 148° |
| 2026-05-06 21:22 | 43.07779 | -70.82315 | 101 ft | 68 kts | 149° |
| 2026-05-06 21:22 | 43.07506 | -70.82091 | 102 ft | 24 kts | 149° |
| 2026-05-06 21:22 | 43.07463 | -70.81978 | 102 ft | 14 kts | 58° |
| 2026-05-06 21:23 | 43.07512 | -70.81871 | 101 ft | 13 kts | 59° |
| 2026-05-06 21:23 | 43.07557 | -70.81766 | 102 ft | 12 kts | 59° |
| 2026-05-06 21:23 | 43.07613 | -70.81685 | 102 ft | 11 kts | 50° |
| 2026-05-06 21:23 | 43.07659 | -70.81609 | 102 ft | 9 kts | 18° |
| 2026-05-06 21:24 | 43.07704 | -70.81629 | 102 ft | 7 kts | 328° |
| 2026-05-06 21:24 | 43.07743 | -70.81662 | 101 ft | 6 kts | 328° |
| 2026-05-06 21:24 | 43.07747 | -70.81666 | 102 ft | 0 kts | 328° |
| 2026-05-06 22:01 | 43.07756 | -70.81673 | 102 ft | 6 kts | 328° |
| 2026-05-06 22:01 | 43.07815 | -70.81743 | 102 ft | 14 kts | 288° |
| 2026-05-06 22:01 | 43.07808 | -70.81868 | 102 ft | 13 kts | 289° |
| 2026-05-06 22:02 | 43.07880 | -70.81938 | 100 ft | 13 kts | 329° |
| 2026-05-06 22:02 | 43.07965 | -70.82008 | 102 ft | 16 kts | 328° |
| 2026-05-06 22:02 | 43.08075 | -70.82099 | 102 ft | 21 kts | 329° |
| 2026-05-06 22:02 | 43.08211 | -70.82210 | 102 ft | 25 kts | 329° |
| 2026-05-06 22:03 | 43.08369 | -70.82340 | 101 ft | 28 kts | 329° |
| 2026-05-06 22:03 | 43.08546 | -70.82485 | 102 ft | 30 kts | 329° |
| 2026-05-06 22:03 | 43.08717 | -70.82625 | 102 ft | 28 kts | 328° |
| 2026-05-06 22:03 | 43.08878 | -70.82757 | 102 ft | 26 kts | 329° |
| 2026-05-06 22:04 | 43.09028 | -70.82880 | 102 ft | 24 kts | 329° |
| 2026-05-06 22:04 | 43.09167 | -70.82997 | 101 ft | 23 kts | 327° |
| 2026-05-06 22:04 | 43.09228 | -70.83165 | 100 ft | 22 kts | 240° |
| 2026-05-06 22:04 | 43.09148 | -70.83343 | 103 ft | 22 kts | 231° |
| 2026-05-06 22:05 | 43.09012 | -70.83321 | 101 ft | 22 kts | 150° |
| 2026-05-06 22:05 | 43.08691 | -70.83060 | 102 ft | 96 kts | 149° |
| 2026-05-06 22:05 | 43.07896 | -70.82405 | 144 ft | 167 kts | 152° |
| 2026-05-06 22:05 | 43.06759 | -70.81488 | 692 ft | 199 kts | 152° |
| 2026-05-06 22:06 | 43.05532 | -70.80483 | 1501 ft | 214 kts | 152° |
| 2026-05-06 22:06 | 43.04363 | -70.79048 | 2115 ft | 241 kts | 133° |
| 2026-05-06 22:06 | 43.03653 | -70.76833 | 2763 ft | 270 kts | 110° |
| 2026-05-06 22:06 | 43.03598 | -70.74162 | 3477 ft | 297 kts | 82° |
| 2026-05-06 22:07 | 43.04403 | -70.71587 | 4117 ft | 302 kts | 52° |
| 2026-05-06 22:07 | 43.05997 | -70.69737 | 4796 ft | 297 kts | 22° |
| 2026-05-06 22:07 | 43.07945 | -70.68925 | 5508 ft | 289 kts | 4° |
| 2026-05-06 22:07 | 43.09931 | -70.68457 | 6176 ft | 293 kts | 2° |
| 2026-05-06 22:08 | 43.11958 | -70.68050 | 6818 ft | 298 kts | 1° |
| 2026-05-06 22:08 | 43.13996 | -70.67639 | 7450 ft | 298 kts | 2° |
| 2026-05-06 22:08 | 43.16064 | -70.67209 | 8135 ft | 303 kts | 2° |
| 2026-05-06 22:08 | 43.18159 | -70.66774 | 8748 ft | 304 kts | 2° |
| 2026-05-06 22:09 | 43.20265 | -70.66319 | 8980 ft | 307 kts | 2° |
| 2026-05-06 22:09 | 43.22377 | -70.65853 | 8989 ft | 309 kts | 3° |
| 2026-05-06 22:09 | 43.24498 | -70.65369 | 8985 ft | 307 kts | 2° |
| 2026-05-06 22:09 | 43.26591 | -70.64911 | 8803 ft | 305 kts | 2° |
| 2026-05-06 22:10 | 43.28666 | -70.64453 | 8602 ft | 298 kts | 2° |
| 2026-05-06 22:10 | 43.30712 | -70.63997 | 8261 ft | 296 kts | 2° |
| 2026-05-06 22:10 | 43.32735 | -70.63546 | 7969 ft | 293 kts | 2° |
| 2026-05-06 22:10 | 43.34763 | -70.63097 | 7353 ft | 297 kts | 2° |
| 2026-05-06 22:11 | 43.36816 | -70.62644 | 6752 ft | 299 kts | 3° |
| 2026-05-06 22:11 | 43.38875 | -70.62186 | 6157 ft | 301 kts | 2° |
| 2026-05-06 22:11 | 43.40941 | -70.61735 | 5533 ft | 301 kts | 2° |
| 2026-05-06 22:11 | 43.43003 | -70.61218 | 4916 ft | 303 kts | 7° |
| 2026-05-06 22:12 | 43.45070 | -70.60586 | 4316 ft | 305 kts | 7° |
| 2026-05-06 22:12 | 43.47096 | -70.59928 | 4046 ft | 291 kts | 9° |
| 2026-05-06 22:12 | 43.49051 | -70.59533 | 3758 ft | 277 kts | 357° |
| 2026-05-06 22:12 | 43.50918 | -70.59380 | 3537 ft | 261 kts | 357° |
| 2026-05-06 22:13 | 43.52687 | -70.59200 | 3293 ft | 250 kts | 358° |
| 2026-05-06 22:13 | 43.54393 | -70.59023 | 3075 ft | 242 kts | 358° |
| 2026-05-06 22:13 | 43.56052 | -70.58859 | 2846 ft | 236 kts | 358° |
| 2026-05-06 22:13 | 43.57670 | -70.58711 | 2605 ft | 229 kts | 358° |
| 2026-05-06 22:14 | 43.59211 | -70.58235 | 2324 ft | 229 kts | 31° |
| 2026-05-06 22:14 | 43.60314 | -70.56784 | 2136 ft | 216 kts | 50° |
| 2026-05-06 22:14 | 43.61429 | -70.55380 | 1979 ft | 221 kts | 40° |
| 2026-05-06 22:14 | 43.62590 | -70.53998 | 1834 ft | 220 kts | 42° |
| 2026-05-06 22:15 | 43.63747 | -70.52615 | 1793 ft | 221 kts | 46° |
| 2026-05-06 22:15 | 43.64892 | -70.51163 | 1792 ft | 226 kts | 48° |
| 2026-05-06 22:15 | 43.65524 | -70.49414 | 1800 ft | 187 kts | 99° |
| 2026-05-06 22:15 | 43.65547 | -70.47729 | 1828 ft | 165 kts | 102° |
| 2026-05-06 22:16 | 43.65522 | -70.46226 | 1789 ft | 154 kts | 103° |
| 2026-05-06 22:16 | 43.65323 | -70.44822 | 1834 ft | 150 kts | 117° |
| 2026-05-06 22:16 | 43.65436 | -70.43274 | 1661 ft | 169 kts | 85° |
| 2026-05-06 22:16 | 43.65465 | -70.41786 | 1418 ft | 142 kts | 117° |
| 2026-05-06 22:17 | 43.65210 | -70.40472 | 1280 ft | 149 kts | 108° |
| 2026-05-06 22:17 | 43.64982 | -70.39088 | 1055 ft | 145 kts | 104° |
| 2026-05-06 22:17 | 43.64904 | -70.37715 | 703 ft | 141 kts | 103° |
| 2026-05-06 22:17 | 43.64779 | -70.36333 | 709 ft | 150 kts | 99° |
| 2026-05-06 22:18 | 43.64745 | -70.34913 | 537 ft | 157 kts | 95° |
| 2026-05-06 22:18 | 43.64646 | -70.33449 | 291 ft | 151 kts | 97° |
| 2026-05-06 22:18 | 43.64548 | -70.32015 | 98 ft | 145 kts | 95° |
| 2026-05-06 22:18 | 43.64475 | -70.30722 | 91 ft | 142 kts | 96° |
| 2026-05-06 22:19 | 43.64354 | -70.29214 | 625 ft | 167 kts | 105° |
| 2026-05-06 22:19 | 43.64179 | -70.28074 | 1070 ft | 190 kts | 114° |
| 2026-05-06 22:19 | 43.63855 | -70.26260 | 2143 ft | 204 kts | 117° |
| 2026-05-06 22:19 | 43.63393 | -70.24219 | 2552 ft | 235 kts | 118° |
| 2026-05-06 22:20 | 43.62879 | -70.22050 | 2489 ft | 249 kts | 113° |
| 2026-05-06 22:20 | 43.62796 | -70.19622 | 2519 ft | 252 kts | 94° |
| 2026-05-06 22:20 | 43.62926 | -70.17273 | 2476 ft | 240 kts | 85° |
| 2026-05-06 22:20 | 43.63655 | -70.15191 | 2505 ft | 241 kts | 48° |
| 2026-05-06 22:21 | 43.65012 | -70.13966 | 2500 ft | 235 kts | 11° |
| 2026-05-06 22:21 | 43.66590 | -70.13888 | 2515 ft | 222 kts | 334° |
| 2026-05-06 22:21 | 43.67848 | -70.14907 | 2527 ft | 205 kts | 305° |
| 2026-05-06 22:21 | 43.68893 | -70.16255 | 2513 ft | 207 kts | 304° |
| 2026-05-06 22:22 | 43.69930 | -70.17626 | 2502 ft | 204 kts | 304° |
| 2026-05-06 22:22 | 43.70951 | -70.18981 | 2499 ft | 203 kts | 304° |
| 2026-05-06 22:22 | 43.71964 | -70.20318 | 2498 ft | 198 kts | 301° |
| 2026-05-06 22:22 | 43.72638 | -70.21866 | 2529 ft | 187 kts | 282° |
| 2026-05-06 22:23 | 43.73181 | -70.23531 | 2519 ft | 192 kts | 283° |
| 2026-05-06 22:23 | 43.73722 | -70.25198 | 2495 ft | 186 kts | 276° |
| 2026-05-06 22:23 | 43.73992 | -70.26895 | 2512 ft | 183 kts | 270° |
| 2026-05-06 22:23 | 43.74182 | -70.28743 | 2517 ft | 202 kts | 266° |
| 2026-05-06 22:24 | 43.74264 | -70.30687 | 2497 ft | 205 kts | 265° |
| 2026-05-06 22:24 | 43.74344 | -70.32670 | 2535 ft | 207 kts | 265° |
| 2026-05-06 22:24 | 43.74425 | -70.34668 | 2520 ft | 209 kts | 265° |
| 2026-05-06 22:24 | 43.74513 | -70.36670 | 2504 ft | 208 kts | 265° |
| 2026-05-06 22:25 | 43.74613 | -70.38666 | 2500 ft | 209 kts | 266° |
| 2026-05-06 22:25 | 43.74699 | -70.40690 | 2250 ft | 213 kts | 265° |
| 2026-05-06 22:25 | 43.74693 | -70.42712 | 1941 ft | 206 kts | 250° |
| 2026-05-06 22:25 | 43.74001 | -70.44339 | 1889 ft | 197 kts | 228° |
| 2026-05-06 22:26 | 43.73035 | -70.45688 | 1821 ft | 197 kts | 224° |
| 2026-05-06 22:26 | 43.72142 | -70.47084 | 1793 ft | 193 kts | 225° |
| 2026-05-06 22:26 | 43.71245 | -70.48464 | 1805 ft | 192 kts | 224° |
| 2026-05-06 22:26 | 43.70341 | -70.49830 | 1795 ft | 194 kts | 225° |
| 2026-05-06 22:27 | 43.69280 | -70.50933 | 1787 ft | 191 kts | 198° |
| 2026-05-06 22:27 | 43.67971 | -70.50892 | 1806 ft | 197 kts | 164° |
| 2026-05-06 22:27 | 43.66848 | -70.49695 | 1824 ft | 212 kts | 137° |
| 2026-05-06 22:27 | 43.65993 | -70.48064 | 1775 ft | 203 kts | 133° |
| 2026-05-06 22:28 | 43.65434 | -70.46374 | 1775 ft | 192 kts | 106° |
| 2026-05-06 22:28 | 43.65364 | -70.44617 | 1794 ft | 177 kts | 103° |
| 2026-05-06 22:28 | 43.65290 | -70.42921 | 1626 ft | 168 kts | 109° |
| 2026-05-06 22:28 | 43.65172 | -70.41382 | 1376 ft | 155 kts | 103° |
| 2026-05-06 22:29 | 43.65083 | -70.39944 | 1168 ft | 149 kts | 103° |
| 2026-05-06 22:29 | 43.64985 | -70.38528 | 986 ft | 150 kts | 101° |
| 2026-05-06 22:29 | 43.64899 | -70.37094 | 749 ft | 148 kts | 98° |
| 2026-05-06 22:29 | 43.64795 | -70.35728 | 526 ft | 142 kts | 99° |
| 2026-05-06 22:30 | 43.64696 | -70.34277 | 412 ft | 158 kts | 97° |
| 2026-05-06 22:30 | 43.64601 | -70.32812 | 151 ft | 147 kts | 98° |
| 2026-05-06 22:30 | 43.64514 | -70.31485 | 82 ft | 123 kts | 95° |
| 2026-05-06 22:30 | 43.64445 | -70.30523 | 57 ft | 79 kts | 96° |
| 2026-05-06 22:31 | 43.64410 | -70.29980 | 55 ft | 35 kts | 95° |
| 2026-05-06 22:31 | 43.64331 | -70.29917 | 52 ft | 13 kts | 188° |
| 2026-05-06 22:31 | 43.64248 | -70.29949 | 49 ft | 12 kts | 220° |
| 2026-05-06 22:31 | 43.64186 | -70.30031 | 51 ft | 13 kts | 224° |
| 2026-05-06 22:32 | 43.64133 | -70.30126 | 50 ft | 13 kts | 251° |
| 2026-05-06 22:32 | 43.64106 | -70.30248 | 56 ft | 14 kts | 257° |
| 2026-05-06 22:32 | 43.64162 | -70.30347 | 57 ft | 14 kts | 304° |
| 2026-05-06 22:32 | 43.64198 | -70.30496 | 60 ft | 18 kts | 286° |
| 2026-05-06 22:33 | 43.64206 | -70.30590 | 65 ft | 8 kts | 236° |
| 2026-05-06 22:33 | 43.64156 | -70.30589 | 57 ft | 8 kts | 176° |
| 2026-05-06 22:33 | 43.64152 | -70.30623 | 56 ft | 2 kts | 11° |
| 2026-05-06 22:33 | 43.64153 | -70.30622 | 64 ft | 0 kts | 16° |
| 2026-05-06 22:34 | 43.64152 | -70.30622 | 64 ft | 0 kts | 16° |